createdAt,value
2022-10-26T00:01:22.128Z,10.70
2022-10-26T00:03:50.051Z,7.10
2022-10-26T00:06:24.895Z,9.70
2022-10-26T00:08:53.068Z,11.20
2022-10-26T00:11:20.651Z,13.30
2022-10-26T00:13:49.152Z,9.20
2022-10-26T00:16:26.988Z,8.90
2022-10-26T00:18:55.101Z,13.30
2022-10-26T00:21:22.744Z,8.40
2022-10-26T00:23:50.381Z,9.50
2022-10-26T00:26:18.052Z,9.20
2022-10-26T00:28:45.645Z,11.20
2022-10-26T00:31:14.958Z,8.80
2022-10-26T00:33:42.818Z,8.70
2022-10-26T00:36:13.731Z,8.80
2022-10-26T00:38:46.090Z,9.60
2022-10-26T00:41:22.876Z,10.00
2022-10-26T00:43:50.849Z,9.00
2022-10-26T00:46:21.907Z,10.50
2022-10-26T00:48:56.841Z,12.20
2022-10-26T00:51:36.848Z,11.00
2022-10-26T00:54:09.748Z,9.00
2022-10-26T00:56:37.660Z,11.10
2022-10-26T00:59:10.558Z,11.30
2022-10-26T01:01:41.109Z,10.60
2022-10-26T01:04:09.281Z,10.80
2022-10-26T01:06:38.324Z,12.40
2022-10-26T01:09:06.267Z,11.30
2022-10-26T01:11:34.057Z,7.40
2022-10-26T01:14:04.861Z,9.80
2022-10-26T01:17:04.985Z,11.00
2022-10-26T01:22:09.081Z,10.20
2022-10-26T01:24:42.594Z,10.60
2022-10-26T01:27:39.223Z,12.10
2022-10-26T01:30:36.398Z,11.80
2022-10-26T01:33:10.569Z,10.30
2022-10-26T01:35:50.243Z,14.10
2022-10-26T01:38:40.838Z,12.40
2022-10-26T01:41:28.183Z,10.20
2022-10-26T01:44:01.162Z,11.60
2022-10-26T01:46:33.565Z,9.70
2022-10-26T01:49:08.178Z,11.10
2022-10-26T01:51:36.959Z,13.00
2022-10-26T01:54:04.570Z,12.20
2022-10-26T01:56:36.634Z,10.50
2022-10-26T01:59:41.559Z,10.00
2022-10-26T02:02:37.247Z,12.80
2022-10-26T02:05:20.806Z,9.20
2022-10-26T02:08:04.993Z,9.50
2022-10-26T02:10:38.527Z,13.40
2022-10-26T02:13:28.336Z,11.20
2022-10-26T02:16:30.417Z,10.90
2022-10-26T02:19:02.503Z,10.00
2022-10-26T02:21:38.014Z,9.60
2022-10-26T02:26:44.038Z,9.80
2022-10-26T02:29:19.122Z,14.70
2022-10-26T02:31:49.242Z,15.50
2022-10-26T02:34:22.422Z,11.90
2022-10-26T02:36:53.636Z,11.50
2022-10-26T02:39:22.249Z,12.90
2022-10-26T02:41:52.356Z,13.40
2022-10-26T02:44:27.063Z,12.60
2022-10-26T02:46:55.807Z,13.80
2022-10-26T02:49:24.362Z,10.80
2022-10-26T02:52:01.485Z,11.20
2022-10-26T02:54:47.154Z,11.50
2022-10-26T02:57:24.433Z,12.40
2022-10-26T02:59:53.914Z,17.80
2022-10-26T03:02:23.174Z,10.80
2022-10-26T03:09:50.176Z,15.40
2022-10-26T03:12:18.193Z,13.30
2022-10-26T03:14:46.370Z,12.50
2022-10-26T03:17:14.026Z,12.10
2022-10-26T03:19:41.612Z,10.50
2022-10-26T03:22:09.275Z,12.90
2022-10-26T03:24:37.882Z,13.70
2022-10-26T03:27:05.514Z,12.30
2022-10-26T03:29:33.248Z,13.30
2022-10-26T03:32:00.922Z,12.50
2022-10-26T03:34:28.632Z,12.40
2022-10-26T03:36:56.288Z,15.80
2022-10-26T03:56:27.153Z,12.40
2022-10-26T03:58:53.397Z,14.10
2022-10-26T04:01:19.660Z,15.60
2022-10-26T04:03:46.107Z,13.90
2022-10-26T04:06:12.867Z,15.60
2022-10-26T04:08:39.185Z,13.50
2022-10-26T04:11:05.529Z,13.80
2022-10-26T04:13:31.852Z,16.30
2022-10-26T04:15:58.159Z,17.40
2022-10-26T04:18:24.463Z,20.90
2022-10-26T04:20:50.796Z,19.20
2022-10-26T04:23:18.819Z,16.40
2022-10-26T04:25:45.397Z,16.50
2022-10-26T04:28:13.162Z,12.80
2022-10-26T04:30:40.317Z,18.70
2022-10-26T04:33:07.131Z,18.10
2022-10-26T04:35:34.191Z,17.10
2022-10-26T04:38:02.693Z,12.70
2022-10-26T04:40:30.171Z,15.80
2022-10-26T04:42:57.081Z,15.20
2022-10-26T04:45:23.524Z,14.20
2022-10-26T04:48:05.374Z,16.10
2022-10-26T04:50:32.056Z,13.60
2022-10-26T04:52:58.495Z,11.00
2022-10-26T04:55:24.835Z,13.70
2022-10-26T04:57:52.291Z,12.50
2022-10-26T05:00:20.277Z,12.60
2022-10-26T05:02:46.641Z,13.90
2022-10-26T05:05:15.106Z,14.90
2022-10-26T05:07:41.621Z,20.60
2022-10-26T05:10:08.772Z,21.20
2022-10-26T05:12:35.101Z,18.40
2022-10-26T05:15:03.944Z,13.50
2022-10-26T05:17:32.717Z,15.60
2022-10-26T05:20:05.121Z,14.40
2022-10-26T05:22:31.847Z,12.70
2022-10-26T05:24:58.173Z,14.00
2022-10-26T05:27:24.419Z,17.90
2022-10-26T05:29:50.731Z,23.80
2022-10-26T05:32:16.954Z,17.80
2022-10-26T05:34:43.392Z,16.40
2022-10-26T05:37:09.742Z,12.40
2022-10-26T05:39:36.036Z,22.00
2022-10-26T05:42:02.378Z,21.00
2022-10-26T05:44:28.638Z,16.60
2022-10-26T05:46:54.966Z,17.00
2022-10-26T05:49:21.203Z,15.40
2022-10-26T05:51:47.506Z,14.70
2022-10-26T05:54:14.171Z,12.70
2022-10-26T05:56:41.211Z,12.70
2022-10-26T05:59:15.647Z,15.20
2022-10-26T06:02:11.013Z,19.60
2022-10-26T06:04:38.021Z,20.80
2022-10-26T06:07:11.461Z,19.50
2022-10-26T06:09:39.139Z,19.20
2022-10-26T06:12:06.958Z,22.10
2022-10-26T06:14:34.591Z,17.10
2022-10-26T06:17:10.004Z,20.90
2022-10-26T06:20:15.235Z,23.10
2022-10-26T06:23:08.788Z,19.70
2022-10-26T06:25:58.744Z,17.10
2022-10-26T06:28:40.917Z,18.00
2022-10-26T06:31:07.625Z,13.30
2022-10-26T06:33:34.106Z,15.50
2022-10-26T06:36:23.379Z,14.10
2022-10-26T06:38:59.330Z,18.00
2022-10-26T06:41:26.354Z,12.90
2022-10-26T06:43:52.931Z,11.90
2022-10-26T06:46:37.778Z,14.30
2022-10-26T06:49:08.100Z,13.40
2022-10-26T06:51:42.678Z,13.40
2022-10-26T06:54:24.263Z,16.90
2022-10-26T06:56:51.766Z,18.40
2022-10-26T06:59:29.957Z,16.00
2022-10-26T07:01:56.261Z,13.00
2022-10-26T07:04:22.560Z,15.10
2022-10-26T07:06:49.051Z,12.30
2022-10-26T07:09:15.290Z,14.10
2022-10-26T07:11:41.500Z,18.90
2022-10-26T07:14:07.995Z,21.30
2022-10-26T07:16:34.293Z,17.70
2022-10-26T07:19:00.632Z,18.20
2022-10-26T07:21:27.361Z,17.90
2022-10-26T07:23:56.249Z,16.20
2022-10-26T07:26:24.885Z,17.40
2022-10-26T07:28:51.617Z,19.80
2022-10-26T07:31:18.318Z,21.60
2022-10-26T07:33:44.728Z,20.70
2022-10-26T07:36:11.856Z,22.80
2022-10-26T07:38:38.851Z,17.40
2022-10-26T07:41:05.555Z,17.00
2022-10-26T07:43:31.897Z,15.20
2022-10-26T07:45:58.319Z,16.70
2022-10-26T07:48:24.544Z,18.90
2022-10-26T07:50:50.805Z,14.60
2022-10-26T07:53:17.029Z,13.30
2022-10-26T07:55:43.316Z,10.60
2022-10-26T07:58:09.688Z,12.80
2022-10-26T08:00:35.997Z,10.90
2022-10-26T08:03:02.249Z,11.20
2022-10-26T08:05:28.807Z,12.20
2022-10-26T08:07:55.184Z,9.10
2022-10-26T08:10:21.848Z,9.60
2022-10-26T08:12:48.232Z,9.70
2022-10-26T08:15:14.491Z,10.10
2022-10-26T08:17:40.798Z,10.60
2022-10-26T08:20:07.735Z,15.00
2022-10-26T08:22:34.109Z,11.80
2022-10-26T08:25:00.344Z,17.00
2022-10-26T08:27:26.717Z,12.30
2022-10-26T08:29:53.121Z,11.40
2022-10-26T08:32:19.729Z,10.10
2022-10-26T08:34:46.168Z,11.70
2022-10-26T08:37:12.600Z,10.90
2022-10-26T08:39:38.808Z,15.50
2022-10-26T08:42:19.749Z,15.50
2022-10-26T08:44:47.857Z,10.80
2022-10-26T08:47:14.202Z,11.90
2022-10-26T08:49:50.374Z,10.70
2022-10-26T08:52:22.625Z,11.10
2022-10-26T08:54:53.603Z,13.40
2022-10-26T08:57:32.797Z,10.20
2022-10-26T09:00:04.365Z,12.20
2022-10-26T09:02:32.036Z,10.00
2022-10-26T09:04:59.343Z,10.20
2022-10-26T09:07:25.521Z,10.50
2022-10-26T09:10:17.329Z,9.90
2022-10-26T09:13:05.074Z,9.70
2022-10-26T09:15:37.757Z,11.80
2022-10-26T09:18:15.874Z,11.10
2022-10-26T09:21:07.857Z,9.20
2022-10-26T09:23:52.784Z,9.10
2022-10-26T09:27:00.829Z,9.90
2022-10-26T09:29:31.443Z,8.80
2022-10-26T09:32:00.730Z,10.30
2022-10-26T09:34:47.178Z,12.20
2022-10-26T09:37:27.545Z,9.30
2022-10-26T09:40:07.156Z,10.00
2022-10-26T09:42:41.172Z,11.10
2022-10-26T09:45:19.298Z,8.50
2022-10-26T09:47:52.144Z,9.30
2022-10-26T09:50:35.142Z,9.90
2022-10-26T09:53:02.421Z,11.00
2022-10-26T09:55:31.256Z,11.80
2022-10-26T09:58:03.172Z,9.90
2022-10-26T10:00:30.166Z,10.90
2022-10-26T10:02:58.074Z,8.10
2022-10-26T10:08:25.295Z,9.20
2022-10-26T10:10:59.953Z,9.50
2022-10-26T10:13:30.304Z,9.10
2022-10-26T10:16:10.727Z,9.10
2022-10-26T10:18:38.490Z,8.40
2022-10-26T10:21:06.361Z,10.90
2022-10-26T10:23:46.835Z,10.70
2022-10-26T10:26:13.291Z,8.50
2022-10-26T10:28:41.941Z,10.70
2022-10-26T10:31:32.419Z,8.30
2022-10-26T10:33:59.266Z,8.50
2022-10-26T10:36:29.515Z,8.50
2022-10-26T10:38:55.996Z,9.70
2022-10-26T10:41:27.997Z,10.80
2022-10-26T10:44:20.521Z,10.30
2022-10-26T10:46:47.127Z,9.70
2022-10-26T10:49:27.004Z,9.50
2022-10-26T10:51:55.238Z,8.90
2022-10-26T10:54:37.061Z,7.60
2022-10-26T10:57:26.195Z,13.40
2022-10-26T11:00:03.304Z,10.80
2022-10-26T11:02:59.217Z,8.00
2022-10-26T11:06:18.126Z,10.90
2022-10-26T11:09:07.139Z,9.30
2022-10-26T11:11:52.898Z,12.90
2022-10-26T11:14:25.548Z,7.60
2022-10-26T11:16:58.388Z,9.00
2022-10-26T11:19:39.401Z,9.80
2022-10-26T11:22:13.073Z,9.90
2022-10-26T11:24:49.061Z,9.10
2022-10-26T11:27:27.743Z,11.70
2022-10-26T11:30:09.331Z,9.00
2022-10-26T11:32:53.848Z,7.70
2022-10-26T11:35:37.202Z,8.50
2022-10-26T11:38:09.176Z,9.00
2022-10-26T11:41:14.775Z,7.90
2022-10-26T11:43:47.807Z,7.80
2022-10-26T11:46:27.885Z,11.90
2022-10-26T11:48:59.471Z,9.60
2022-10-26T11:51:31.882Z,10.30
2022-10-26T11:54:07.172Z,9.00
2022-10-26T11:59:06.068Z,7.40
2022-10-26T12:01:33.868Z,10.50
2022-10-26T12:04:02.437Z,7.80
2022-10-26T12:06:31.396Z,7.40
2022-10-26T12:09:06.157Z,7.20
2022-10-26T12:11:42.508Z,10.20
2022-10-26T12:14:17.917Z,9.30
2022-10-26T12:16:59.361Z,8.20
2022-10-26T12:19:33.579Z,11.00
2022-10-26T12:22:00.701Z,7.40
2022-10-26T12:24:32.828Z,11.10
2022-10-26T12:27:01.610Z,7.00
2022-10-26T12:29:38.212Z,7.90
2022-10-26T12:32:29.977Z,8.00
2022-10-26T12:34:59.665Z,7.20
2022-10-26T12:37:37.603Z,12.30
2022-10-26T12:40:40.498Z,11.80
2022-10-26T12:43:12.739Z,10.40
2022-10-26T12:45:42.716Z,9.80
2022-10-26T12:48:38.426Z,8.00
2022-10-26T12:51:27.136Z,8.40
2022-10-26T12:54:01.333Z,9.80
2022-10-26T12:56:36.393Z,8.10
2022-10-26T12:59:20.950Z,9.20
2022-10-26T13:02:05.904Z,9.00
2022-10-26T13:04:57.921Z,9.10
2022-10-26T13:07:36.815Z,9.70
2022-10-26T13:10:18.945Z,10.70
2022-10-26T13:12:47.323Z,9.90
2022-10-26T13:15:28.406Z,9.20
2022-10-26T13:17:56.852Z,8.20
2022-10-26T13:20:23.424Z,12.20
2022-10-26T13:22:50.245Z,10.70
2022-10-26T13:25:28.481Z,13.00
2022-10-26T13:28:21.115Z,18.10
2022-10-26T13:30:47.521Z,14.20
2022-10-26T13:33:24.015Z,11.40
2022-10-26T13:35:54.362Z,12.40
2022-10-26T13:38:23.599Z,11.60
2022-10-26T13:40:58.302Z,11.40
2022-10-26T13:43:26.579Z,11.90
2022-10-26T13:45:54.569Z,14.30
2022-10-26T13:48:29.128Z,12.80
2022-10-26T13:51:00.737Z,8.00
2022-10-26T13:53:56.708Z,11.50
2022-10-26T13:56:43.723Z,10.30
2022-10-26T13:59:12.776Z,9.10
2022-10-26T14:01:39.728Z,10.00
2022-10-26T14:04:28.217Z,14.40
2022-10-26T14:06:55.677Z,10.20
2022-10-26T14:09:22.585Z,11.10
2022-10-26T14:11:51.989Z,13.80
2022-10-26T14:14:26.189Z,8.70
2022-10-26T14:16:53.573Z,14.20
2022-10-26T14:19:25.569Z,15.10
2022-10-26T14:21:52.577Z,14.90
2022-10-26T14:24:35.799Z,15.40
2022-10-26T14:27:18.118Z,14.30
2022-10-26T14:29:49.817Z,16.80
2022-10-26T14:32:31.377Z,19.20
2022-10-26T14:34:57.645Z,15.10
2022-10-26T14:37:38.095Z,14.20
2022-10-26T14:40:07.353Z,11.20
2022-10-26T14:42:39.414Z,13.50
2022-10-26T14:45:29.524Z,14.00
2022-10-26T14:47:56.818Z,11.90
2022-10-26T14:50:26.810Z,15.00
2022-10-26T14:52:56.157Z,14.30
2022-10-26T14:55:25.293Z,20.10
2022-10-26T14:58:05.530Z,13.10
2022-10-26T15:00:32.883Z,10.30
2022-10-26T15:02:59.583Z,12.80
2022-10-26T15:05:35.558Z,11.50
2022-10-26T15:08:02.720Z,11.40
2022-10-26T15:10:35.036Z,11.70
2022-10-26T15:13:28.539Z,10.80
2022-10-26T15:15:58.554Z,12.80
2022-10-26T15:18:28.443Z,14.20
2022-10-26T15:20:56.228Z,13.60
2022-10-26T15:26:30.551Z,14.40
2022-10-26T15:28:59.352Z,21.40
2022-10-26T15:31:27.356Z,16.50
2022-10-26T15:33:55.060Z,14.80
2022-10-26T15:36:26.925Z,17.70
2022-10-26T15:38:55.729Z,17.30
2022-10-26T15:41:36.781Z,15.80
2022-10-26T15:44:13.872Z,17.10
2022-10-26T15:46:42.314Z,12.20
2022-10-26T15:49:16.388Z,14.50
2022-10-26T15:51:46.104Z,12.80
2022-10-26T15:54:14.578Z,17.30
2022-10-26T15:56:43.864Z,13.80
2022-10-26T15:59:19.312Z,12.70
2022-10-26T16:01:47.127Z,16.10
2022-10-26T16:04:15.054Z,13.60
2022-10-26T16:06:42.935Z,14.50
2022-10-26T16:09:15.589Z,12.70
2022-10-26T16:11:44.535Z,12.50
2022-10-26T16:14:12.962Z,19.90
2022-10-26T16:16:41.417Z,12.30
2022-10-26T16:19:30.895Z,13.30
2022-10-26T16:21:58.630Z,13.60
2022-10-26T16:24:27.843Z,18.40
2022-10-26T16:26:56.382Z,12.90
2022-10-26T16:29:24.244Z,15.70
2022-10-26T16:31:51.870Z,16.00
2022-10-26T16:34:19.646Z,16.50
2022-10-26T16:36:47.368Z,14.00
2022-10-26T16:39:14.985Z,12.90
2022-10-26T16:41:42.610Z,13.60
2022-10-26T16:44:12.886Z,14.60
2022-10-26T16:46:40.482Z,16.70
2022-10-26T16:49:08.171Z,13.30
2022-10-26T16:51:36.013Z,14.70
2022-10-26T16:54:03.954Z,16.80
2022-10-26T16:56:31.771Z,18.50
2022-10-26T16:58:59.446Z,17.60
2022-10-26T17:01:27.242Z,18.80
2022-10-26T17:03:55.038Z,18.20
2022-10-26T17:06:22.809Z,15.70
2022-10-26T17:08:50.443Z,13.80
2022-10-26T17:11:21.025Z,15.20
2022-10-26T17:13:53.815Z,18.40
2022-10-26T17:16:23.690Z,18.60
2022-10-26T17:18:53.926Z,16.30
2022-10-26T17:21:39.892Z,19.70
2022-10-26T17:24:07.657Z,15.30
2022-10-26T17:26:35.465Z,18.80
2022-10-26T17:29:03.826Z,14.00
2022-10-26T17:31:32.071Z,14.40
2022-10-26T17:33:59.748Z,19.60
2022-10-26T17:36:27.637Z,17.90
2022-10-26T17:38:55.830Z,19.30
2022-10-26T17:41:24.561Z,15.70
2022-10-26T17:43:53.310Z,20.10
2022-10-26T17:46:24.214Z,12.10
2022-10-26T17:48:57.230Z,14.60
2022-10-26T18:07:15.855Z,14.20
2022-10-26T18:09:43.481Z,15.90
2022-10-26T18:12:11.218Z,13.90
2022-10-26T18:14:38.809Z,17.50
2022-10-26T18:17:06.805Z,18.60
2022-10-26T18:19:34.519Z,21.00
2022-10-26T18:22:02.176Z,16.10
2022-10-26T18:24:29.832Z,16.10
2022-10-26T18:26:58.144Z,15.80
2022-10-26T18:29:25.749Z,16.60
2022-10-26T18:31:53.336Z,13.40
2022-10-26T18:34:21.037Z,17.80
2022-10-26T18:36:48.868Z,19.30
2022-10-26T18:39:16.586Z,19.50
2022-10-26T18:41:44.494Z,14.60
2022-10-26T18:44:12.622Z,12.30
2022-10-26T18:46:42.593Z,15.60
2022-10-26T18:49:10.497Z,15.40
2022-10-26T18:51:38.308Z,20.70
2022-10-26T18:54:05.985Z,30.60
2022-10-26T18:56:33.685Z,25.50
2022-10-26T18:59:01.670Z,23.70
2022-10-26T19:01:35.123Z,18.30
2022-10-26T19:04:05.836Z,21.60
2022-10-26T19:06:36.817Z,21.80
2022-10-26T19:09:06.855Z,18.60
2022-10-26T19:11:35.356Z,25.80
2022-10-26T19:14:03.694Z,32.10
2022-10-26T19:16:45.190Z,22.40
2022-10-26T19:19:18.508Z,22.10
2022-10-26T19:21:48.257Z,20.10
2022-10-26T19:24:19.088Z,20.40
2022-10-26T19:26:48.622Z,18.70
2022-10-26T19:31:46.680Z,14.70
2022-10-26T19:34:16.304Z,20.30
2022-10-26T19:36:47.065Z,23.40
2022-10-26T19:39:16.432Z,21.30
2022-10-26T19:41:45.374Z,22.50
2022-10-26T19:44:14.556Z,22.70
2022-10-26T19:46:43.650Z,26.50
2022-10-26T19:49:12.869Z,21.80
2022-10-26T19:51:40.725Z,30.40
2022-10-26T19:54:08.941Z,28.60
2022-10-26T19:56:37.381Z,25.00
2022-10-26T19:59:05.706Z,26.70
2022-10-26T20:01:34.124Z,25.10
2022-10-26T20:04:02.776Z,23.90
2022-10-26T20:06:31.067Z,26.60
2022-10-26T20:09:00.106Z,23.70
2022-10-26T20:11:28.336Z,31.80
2022-10-26T20:13:56.503Z,31.70
2022-10-26T20:16:25.043Z,26.60
2022-10-26T20:18:52.702Z,30.30
2022-10-26T20:21:20.453Z,24.60
2022-10-26T20:23:48.096Z,24.60
2022-10-26T20:26:19.301Z,21.30
2022-10-26T20:28:50.946Z,22.10
2022-10-26T20:31:19.884Z,31.50
2022-10-26T20:33:54.930Z,34.50
2022-10-26T20:36:23.031Z,28.70
2022-10-26T20:38:51.446Z,25.10
2022-10-26T20:41:19.660Z,23.90
2022-10-26T20:43:50.581Z,35.70
2022-10-26T20:46:25.352Z,22.50
2022-10-26T20:48:54.109Z,25.20
2022-10-26T20:52:02.699Z,34.70
2022-10-26T20:54:39.414Z,32.90
2022-10-26T20:57:13.645Z,28.60
2022-10-26T20:59:47.559Z,35.40
2022-10-26T21:02:15.841Z,32.50
2022-10-26T21:04:43.562Z,24.60
2022-10-26T21:07:11.744Z,31.50
2022-10-26T21:09:39.355Z,34.10
2022-10-26T21:12:07.254Z,33.70
2022-10-26T21:14:40.533Z,27.60
2022-10-26T21:17:09.321Z,22.10
2022-10-26T21:19:37.611Z,23.60
2022-10-26T21:22:05.241Z,23.50
2022-10-26T21:24:33.046Z,19.80
2022-10-26T21:27:00.697Z,29.60
2022-10-26T21:29:28.424Z,30.00
2022-10-26T21:31:56.082Z,25.10
2022-10-26T21:34:23.932Z,21.10
2022-10-26T21:36:51.526Z,19.00
2022-10-26T21:39:19.210Z,20.50
2022-10-26T21:41:46.884Z,21.10
2022-10-26T21:44:42.159Z,24.10
2022-10-26T21:47:02.084Z,23.90
2022-10-26T21:49:29.854Z,20.20
2022-10-26T21:51:57.468Z,20.30
2022-10-26T21:54:25.060Z,21.70
2022-10-26T21:56:52.786Z,22.10
2022-10-26T21:59:20.401Z,16.40
2022-10-26T22:01:48.427Z,18.50
2022-10-26T22:04:16.172Z,23.30
2022-10-26T22:06:43.878Z,23.80
2022-10-26T22:09:11.476Z,21.30
2022-10-26T22:11:39.124Z,20.00
2022-10-26T22:14:07.242Z,19.00
2022-10-26T22:16:34.840Z,15.50
2022-10-26T22:19:05.931Z,17.80
2022-10-26T22:21:39.045Z,15.90
2022-10-26T22:24:07.792Z,21.50
2022-10-26T22:26:36.970Z,24.00
2022-10-26T22:29:05.225Z,19.00
2022-10-26T22:31:35.396Z,15.20
2022-10-26T22:34:12.724Z,16.20
2022-10-26T22:36:40.471Z,16.80
2022-10-26T22:39:08.089Z,18.40
2022-10-26T22:41:35.695Z,16.10
2022-10-26T22:44:03.719Z,18.40
2022-10-26T22:46:31.423Z,20.90
2022-10-26T22:49:01.562Z,18.10
2022-10-26T22:51:34.531Z,15.80
2022-10-26T22:54:04.423Z,16.00
2022-10-26T22:56:33.684Z,14.70
2022-10-26T22:59:01.668Z,11.60
2022-10-26T23:01:33.004Z,13.00
2022-10-26T23:04:00.753Z,20.20
2022-10-26T23:06:31.504Z,16.50
2022-10-26T23:08:59.817Z,17.50
2022-10-26T23:11:29.287Z,18.00
2022-10-26T23:13:59.514Z,16.60
2022-10-26T23:16:28.437Z,13.70
2022-10-26T23:18:56.563Z,15.30
2022-10-26T23:23:58.358Z,26.10
2022-10-26T23:26:26.256Z,22.30
2022-10-26T23:28:54.088Z,19.80
2022-10-26T23:31:25.690Z,18.30
2022-10-26T23:33:56.123Z,18.70
2022-10-26T23:36:24.681Z,18.00
2022-10-26T23:38:52.771Z,15.30
2022-10-26T23:41:20.414Z,13.70
2022-10-26T23:43:48.068Z,14.90
2022-10-26T23:46:15.881Z,19.90
2022-10-26T23:48:43.665Z,20.20
2022-10-26T23:51:11.254Z,16.50
2022-10-26T23:53:38.877Z,14.30
2022-10-26T23:56:06.999Z,9.60
2022-10-26T23:58:34.811Z,15.80
